createdAt,value
2022-09-18T00:02:15.644Z,89.38
2022-09-18T00:04:45.317Z,89.59
2022-09-18T00:07:15.050Z,89.56
2022-09-18T00:09:44.977Z,89.33
2022-09-18T00:12:14.859Z,89.67
2022-09-18T00:14:44.977Z,90.27
2022-09-18T00:17:17.316Z,90.38
2022-09-18T00:19:46.979Z,90.14
2022-09-18T00:22:16.733Z,89.70
2022-09-18T00:24:46.341Z,90.26
2022-09-18T00:27:15.944Z,89.77
2022-09-18T00:29:45.583Z,90.07
2022-09-18T00:32:17.912Z,89.22
2022-09-18T00:34:47.657Z,89.24
2022-09-18T00:37:17.432Z,90.05
2022-09-18T00:39:47.527Z,89.71
2022-09-18T00:42:17.224Z,90.03
2022-09-18T00:44:48.202Z,89.87
2022-09-18T00:47:29.070Z,89.06
2022-09-18T00:50:05.805Z,89.57
2022-09-18T00:52:43.457Z,89.27
2022-09-18T00:55:14.887Z,88.54
2022-09-18T00:57:49.157Z,88.48
2022-09-18T01:00:18.878Z,88.54
2022-09-18T01:02:51.567Z,88.80
2022-09-18T01:05:30.731Z,88.85
2022-09-18T01:08:15.233Z,89.22
2022-09-18T01:11:01.084Z,89.41
2022-09-18T01:13:39.497Z,89.63
2022-09-18T01:16:14.353Z,89.94
2022-09-18T01:18:54.665Z,89.30
2022-09-18T01:21:33.212Z,89.36
2022-09-18T01:24:25.772Z,89.12
2022-09-18T01:27:01.069Z,89.38
2022-09-18T01:29:48.088Z,88.27
2022-09-18T01:32:25.284Z,88.90
2022-09-18T01:35:09.879Z,88.76
2022-09-18T01:37:49.108Z,89.34
2022-09-18T01:40:27.046Z,88.99
2022-09-18T01:43:00.196Z,89.11
2022-09-18T01:45:37.507Z,89.44
2022-09-18T01:48:10.530Z,89.51
2022-09-18T01:50:48.324Z,89.06
2022-09-18T01:53:24.191Z,89.74
2022-09-18T01:55:59.429Z,89.81
2022-09-18T01:58:31.897Z,89.13
2022-09-18T02:01:09.372Z,88.65
2022-09-18T02:03:45.421Z,88.59
2022-09-18T02:06:19.528Z,88.82
2022-09-18T02:08:52.204Z,88.77
2022-09-18T02:11:25.393Z,89.20
2022-09-18T02:13:58.505Z,89.71
2022-09-18T02:16:44.758Z,90.14
2022-09-18T02:19:21.302Z,91.10
2022-09-18T02:21:53.117Z,90.74
2022-09-18T02:24:27.344Z,91.16
2022-09-18T02:26:58.315Z,91.48
2022-09-18T02:29:28.589Z,90.83
2022-09-18T02:32:01.783Z,90.53
2022-09-18T02:34:32.551Z,90.20
2022-09-18T02:37:26.021Z,90.49
2022-09-18T02:40:11.072Z,90.24
2022-09-18T02:42:50.520Z,90.10
2022-09-18T02:45:29.459Z,90.25
2022-09-18T02:48:21.645Z,90.37
2022-09-18T02:50:59.796Z,90.74
2022-09-18T02:53:34.865Z,91.07
2022-09-18T02:56:09.150Z,90.92
2022-09-18T02:58:46.980Z,90.61
2022-09-18T03:01:19.777Z,91.17
2022-09-18T03:03:53.154Z,90.91
2022-09-18T03:06:31.308Z,91.11
2022-09-18T03:09:01.042Z,90.60
2022-09-18T03:11:30.716Z,90.66
2022-09-18T03:14:00.411Z,90.85
2022-09-18T03:16:30.183Z,90.50
2022-09-18T03:19:02.774Z,90.32
2022-09-18T03:21:32.671Z,90.53
2022-09-18T03:24:02.604Z,90.03
2022-09-18T03:26:33.503Z,90.11
2022-09-18T03:29:03.178Z,90.02
2022-09-18T03:31:34.208Z,89.94
2022-09-18T03:34:08.004Z,89.55
2022-09-18T03:36:37.804Z,89.75
2022-09-18T03:39:07.534Z,90.37
2022-09-18T03:41:37.304Z,89.63
2022-09-18T03:44:09.643Z,90.03
2022-09-18T03:46:43.223Z,89.42
2022-09-18T03:49:15.719Z,89.63
2022-09-18T03:51:46.226Z,90.22
2022-09-18T03:54:16.038Z,90.24
2022-09-18T03:56:59.549Z,90.58
2022-09-18T03:59:34.735Z,90.61
2022-09-18T04:02:22.960Z,90.70
2022-09-18T04:05:15.469Z,90.75
2022-09-18T04:08:11.041Z,90.95
2022-09-18T04:11:05.147Z,90.92
2022-09-18T04:13:37.172Z,90.95
2022-09-18T04:16:10.726Z,90.55
2022-09-18T04:18:40.402Z,90.13
2022-09-18T04:21:13.989Z,90.06
2022-09-18T04:23:43.704Z,90.53
2022-09-18T04:26:15.847Z,90.45
2022-09-18T04:28:52.333Z,90.08
2022-09-18T04:31:22.157Z,90.80
2022-09-18T04:33:51.969Z,91.14
2022-09-18T04:36:28.503Z,91.37
2022-09-18T04:38:58.169Z,92.08
2022-09-18T04:41:27.896Z,91.97
2022-09-18T04:43:59.073Z,92.04
2022-09-18T04:46:28.802Z,92.40
2022-09-18T04:48:58.476Z,92.66
2022-09-18T04:51:32.499Z,92.84
2022-09-18T04:54:03.148Z,92.93
2022-09-18T04:56:32.956Z,93.21
2022-09-18T04:59:03.037Z,93.01
2022-09-18T05:01:33.381Z,92.82
2022-09-18T05:04:06.958Z,93.40
2022-09-18T05:06:48.937Z,93.16
2022-09-18T05:09:20.236Z,93.00
2022-09-18T05:11:50.172Z,92.81
2022-09-18T05:14:21.033Z,93.08
2022-09-18T05:16:54.861Z,93.82
2022-09-18T05:19:30.673Z,93.81
2022-09-18T05:22:25.661Z,94.10
2022-09-18T05:24:55.347Z,94.10
2022-09-18T05:27:27.056Z,94.04
2022-09-18T05:29:57.852Z,93.64
2022-09-18T05:32:38.183Z,94.10
2022-09-18T05:35:09.292Z,94.18
2022-09-18T05:37:44.528Z,93.56
2022-09-18T05:40:14.262Z,93.72
2022-09-18T05:42:48.595Z,92.43
2022-09-18T05:45:19.887Z,92.91
2022-09-18T05:47:57.895Z,93.00
2022-09-18T05:50:29.238Z,92.92
2022-09-18T05:53:08.565Z,92.20
2022-09-18T05:55:53.370Z,92.33
2022-09-18T05:58:24.693Z,91.64
2022-09-18T06:01:01.722Z,91.95
2022-09-18T06:03:45.964Z,92.58
2022-09-18T06:06:15.983Z,92.79
2022-09-18T06:08:48.522Z,93.04
2022-09-18T06:11:18.738Z,92.71
2022-09-18T06:13:49.201Z,92.96
2022-09-18T06:16:19.129Z,93.01
2022-09-18T06:18:55.173Z,92.19
2022-09-18T06:21:26.518Z,92.14
2022-09-18T06:24:00.099Z,91.69
2022-09-18T06:26:40.656Z,91.55
2022-09-18T06:29:11.432Z,91.88
2022-09-18T06:31:52.050Z,92.09
2022-09-18T06:34:26.861Z,92.31
2022-09-18T06:37:01.241Z,91.67
2022-09-18T06:39:57.389Z,91.03
2022-09-18T06:42:45.302Z,90.26
2022-09-18T06:45:33.042Z,91.29
2022-09-18T06:48:06.661Z,91.88
2022-09-18T06:50:40.282Z,91.59
2022-09-18T06:53:12.814Z,91.09
2022-09-18T06:55:55.310Z,90.83
2022-09-18T06:58:26.125Z,89.40
2022-09-18T07:00:58.055Z,88.95
2022-09-18T07:03:32.481Z,88.46
2022-09-18T07:06:15.381Z,88.07
2022-09-18T07:08:48.143Z,87.98
2022-09-18T07:11:40.756Z,88.41
2022-09-18T07:14:11.466Z,88.69
2022-09-18T07:16:41.293Z,88.33
2022-09-18T07:19:12.169Z,88.58
2022-09-18T07:21:41.916Z,88.33
2022-09-18T07:24:13.152Z,88.74
2022-09-18T07:26:46.670Z,88.03
2022-09-18T07:29:17.395Z,89.79
2022-09-18T07:31:48.239Z,89.85
2022-09-18T07:34:19.071Z,90.68
2022-09-18T07:36:52.029Z,91.33
2022-09-18T07:39:22.784Z,91.76
2022-09-18T07:42:22.298Z,92.44
2022-09-18T07:44:55.022Z,92.51
2022-09-18T07:47:25.379Z,92.27
2022-09-18T07:49:57.528Z,91.77
2022-09-18T07:52:27.722Z,91.81
2022-09-18T07:55:00.260Z,91.31
2022-09-18T07:57:39.344Z,91.93
2022-09-18T08:00:26.205Z,92.06
2022-09-18T08:03:05.046Z,92.30
2022-09-18T08:05:56.710Z,92.05
2022-09-18T08:08:27.777Z,92.31
2022-09-18T08:11:17.424Z,91.59
2022-09-18T08:13:53.514Z,91.42
2022-09-18T08:16:43.059Z,92.71
2022-09-18T08:19:14.018Z,92.48
2022-09-18T08:21:51.919Z,92.30
2022-09-18T08:24:21.715Z,92.96
2022-09-18T08:26:52.725Z,91.68
2022-09-18T08:29:25.152Z,91.84
2022-09-18T08:32:09.016Z,92.41
2022-09-18T08:34:41.062Z,91.88
2022-09-18T08:37:11.856Z,91.60
2022-09-18T08:40:00.341Z,91.31
2022-09-18T08:42:47.166Z,90.91
2022-09-18T08:45:49.632Z,91.34
2022-09-18T08:48:22.857Z,92.43
2022-09-18T08:51:01.190Z,91.98
2022-09-18T08:53:37.432Z,91.08
2022-09-18T08:56:28.308Z,92.07
2022-09-18T08:59:24.423Z,91.05
2022-09-18T09:02:15.854Z,91.27
2022-09-18T09:04:47.828Z,91.74
2022-09-18T09:07:34.789Z,91.67
2022-09-18T09:10:35.086Z,90.61
2022-09-18T09:13:25.275Z,89.81
2022-09-18T09:15:59.458Z,90.60
2022-09-18T09:18:38.088Z,90.96
2022-09-18T09:21:20.475Z,90.87
2022-09-18T09:24:08.416Z,90.83
2022-09-18T09:27:00.125Z,91.62
2022-09-18T09:29:59.767Z,91.79
2022-09-18T09:32:47.690Z,90.83
2022-09-18T09:35:37.633Z,90.00
2022-09-18T09:38:32.315Z,89.97
2022-09-18T09:41:10.059Z,90.12
2022-09-18T09:43:45.147Z,89.05
2022-09-18T09:46:25.335Z,89.22
2022-09-18T09:49:05.119Z,89.01
2022-09-18T09:51:52.034Z,88.64
2022-09-18T09:54:23.174Z,88.89
2022-09-18T09:57:00.327Z,89.15
2022-09-18T09:59:38.341Z,89.05
2022-09-18T10:02:50.927Z,88.79
2022-09-18T10:05:32.275Z,88.33
2022-09-18T10:08:15.310Z,88.42
2022-09-18T10:10:52.421Z,88.58
2022-09-18T10:13:26.251Z,88.32
2022-09-18T10:16:03.452Z,87.70
2022-09-18T10:18:39.459Z,88.14
2022-09-18T10:21:15.185Z,88.63
2022-09-18T10:23:58.897Z,88.20
2022-09-18T10:26:37.765Z,86.91
2022-09-18T10:29:11.992Z,87.10
2022-09-18T10:31:53.088Z,87.83
2022-09-18T10:34:40.975Z,88.26
2022-09-18T10:37:19.841Z,89.26
2022-09-18T10:39:57.718Z,89.92
2022-09-18T10:42:31.158Z,90.82
2022-09-18T10:45:25.094Z,91.15
2022-09-18T10:48:08.841Z,91.52
2022-09-18T10:50:40.054Z,91.94
2022-09-18T10:53:30.099Z,91.05
2022-09-18T10:56:21.158Z,91.11
2022-09-18T10:58:55.388Z,91.62
2022-09-18T11:01:28.114Z,92.07
2022-09-18T11:04:05.313Z,91.95
2022-09-18T11:06:40.725Z,92.83
2022-09-18T11:09:34.921Z,93.14
2022-09-18T11:12:15.101Z,92.83
2022-09-18T11:14:48.309Z,92.49
2022-09-18T11:17:28.561Z,92.66
2022-09-18T11:20:03.154Z,92.78
2022-09-18T11:22:47.560Z,93.76
2022-09-18T11:25:31.091Z,94.88
2022-09-18T11:28:30.559Z,94.53
2022-09-18T11:31:07.799Z,93.05
2022-09-18T11:33:46.801Z,92.11
2022-09-18T11:36:26.832Z,92.47
2022-09-18T11:38:59.320Z,92.76
2022-09-18T11:41:36.817Z,93.00
2022-09-18T11:44:20.137Z,91.07
2022-09-18T11:47:14.824Z,92.26
2022-09-18T11:49:51.935Z,91.30
2022-09-18T11:52:27.163Z,91.59
2022-09-18T11:55:10.539Z,91.11
2022-09-18T11:57:46.599Z,90.31
2022-09-18T12:00:23.453Z,90.39
2022-09-18T12:03:09.483Z,90.42
2022-09-18T12:05:52.534Z,90.24
2022-09-18T12:08:33.200Z,90.30
2022-09-18T12:11:19.502Z,89.40
2022-09-18T12:14:12.842Z,88.96
2022-09-18T12:16:59.137Z,90.26
2022-09-18T12:19:38.864Z,88.38
2022-09-18T12:22:18.099Z,88.43
2022-09-18T12:24:48.900Z,89.13
2022-09-18T12:27:32.053Z,87.53
2022-09-18T12:30:11.460Z,88.07
2022-09-18T12:33:00.489Z,86.01
2022-09-18T12:35:44.034Z,85.95
2022-09-18T12:38:36.285Z,84.46
2022-09-18T12:41:22.109Z,85.12
2022-09-18T12:44:18.940Z,84.89
2022-09-18T12:47:04.199Z,85.30
2022-09-18T12:50:05.050Z,83.36
2022-09-18T12:53:08.276Z,84.28
2022-09-18T12:55:54.447Z,82.44
2022-09-18T12:58:54.446Z,83.12
2022-09-18T13:01:32.331Z,83.81
2022-09-18T13:04:08.558Z,82.35
2022-09-18T13:06:48.252Z,81.20
2022-09-18T13:09:25.911Z,81.16
2022-09-18T13:12:01.956Z,80.94
2022-09-18T13:14:38.994Z,79.44
2022-09-18T13:17:17.907Z,78.53
2022-09-18T13:19:54.488Z,77.85
2022-09-18T13:22:32.290Z,79.23
2022-09-18T13:25:04.490Z,79.60
2022-09-18T13:27:35.815Z,79.15
2022-09-18T13:30:17.754Z,78.13
2022-09-18T13:32:48.488Z,78.05
2022-09-18T13:35:24.899Z,78.55
2022-09-18T13:38:17.736Z,78.09
2022-09-18T13:40:50.779Z,78.99
2022-09-18T13:43:39.322Z,75.75
2022-09-18T13:46:10.111Z,77.35
2022-09-18T13:48:48.849Z,77.45
2022-09-18T13:51:23.443Z,76.53
2022-09-18T13:54:21.123Z,74.53
2022-09-18T13:57:20.651Z,75.10
2022-09-18T13:59:53.556Z,77.19
2022-09-18T14:02:42.208Z,76.27
2022-09-18T14:05:33.731Z,76.79
2022-09-18T14:08:13.212Z,77.32
2022-09-18T14:11:15.739Z,76.53
2022-09-18T14:13:54.719Z,77.36
2022-09-18T14:16:38.919Z,76.88
2022-09-18T14:19:31.159Z,77.54
2022-09-18T14:22:04.180Z,76.71
2022-09-18T14:25:00.045Z,77.09
2022-09-18T14:27:56.177Z,77.25
2022-09-18T14:30:31.784Z,78.68
2022-09-18T14:33:17.610Z,78.75
2022-09-18T14:36:00.148Z,79.45
2022-09-18T14:38:36.445Z,79.34
2022-09-18T14:41:19.341Z,79.41
2022-09-18T14:43:57.247Z,79.80
2022-09-18T14:46:33.967Z,80.42
2022-09-18T14:49:04.739Z,82.29
2022-09-18T14:51:54.518Z,82.68
2022-09-18T14:54:28.095Z,83.27
2022-09-18T14:57:02.324Z,82.46
2022-09-18T14:59:36.099Z,83.14
2022-09-18T15:02:23.265Z,81.90
2022-09-18T15:04:53.591Z,82.19
2022-09-18T15:07:25.994Z,82.91
2022-09-18T15:09:59.793Z,82.11
2022-09-18T15:12:34.753Z,81.50
2022-09-18T15:15:33.657Z,79.63
2022-09-18T15:18:04.235Z,78.38
2022-09-18T15:20:34.254Z,77.11
2022-09-18T15:23:20.337Z,76.76
2022-09-18T15:25:54.817Z,77.36
2022-09-18T15:28:28.458Z,75.91
2022-09-18T15:31:04.733Z,76.26
2022-09-18T15:33:37.645Z,77.11
2022-09-18T15:36:08.245Z,78.30
2022-09-18T15:38:42.944Z,77.52
2022-09-18T15:41:42.136Z,77.79
2022-09-18T15:44:48.316Z,76.50
2022-09-18T15:47:45.059Z,75.71
2022-09-18T15:50:45.873Z,77.38
2022-09-18T15:53:24.190Z,78.07
2022-09-18T15:56:01.085Z,78.38
2022-09-18T15:58:45.049Z,79.01
2022-09-18T16:01:22.408Z,80.79
2022-09-18T16:04:04.544Z,81.94
2022-09-18T16:06:44.005Z,83.04
2022-09-18T16:09:30.700Z,83.23
2022-09-18T16:12:25.628Z,82.99
2022-09-18T16:15:04.779Z,82.67
2022-09-18T16:17:39.387Z,84.06
2022-09-18T16:20:43.243Z,83.94
2022-09-18T16:23:20.070Z,84.85
2022-09-18T16:26:06.624Z,85.34
2022-09-18T16:28:39.069Z,85.96
2022-09-18T16:31:11.018Z,85.78
2022-09-18T16:33:55.573Z,85.42
2022-09-18T16:36:32.933Z,85.41
2022-09-18T16:39:07.957Z,85.01
2022-09-18T16:41:38.378Z,85.42
2022-09-18T16:44:10.960Z,85.52
2022-09-18T16:46:45.595Z,85.25
2022-09-18T16:49:18.711Z,85.44
2022-09-18T16:51:52.064Z,85.24
2022-09-18T16:54:22.711Z,84.80
2022-09-18T16:56:58.111Z,84.50
2022-09-18T16:59:30.988Z,84.70
2022-09-18T17:02:04.667Z,84.73
2022-09-18T17:04:35.084Z,85.04
2022-09-18T17:07:08.353Z,84.60
2022-09-18T17:09:38.068Z,84.58
2022-09-18T17:12:09.331Z,84.55
2022-09-18T17:14:43.970Z,84.91
2022-09-18T17:17:14.700Z,86.58
2022-09-18T17:19:45.470Z,87.77
2022-09-18T17:22:22.497Z,88.78
2022-09-18T17:24:53.827Z,90.35
2022-09-18T17:27:25.965Z,91.13
2022-09-18T17:29:56.779Z,91.04
2022-09-18T17:32:26.499Z,91.70
2022-09-18T17:34:57.187Z,92.50
2022-09-18T17:37:32.834Z,92.64
2022-09-18T17:40:04.014Z,93.01
2022-09-18T17:42:34.699Z,92.58
2022-09-18T17:45:05.776Z,92.22
2022-09-18T17:47:36.423Z,92.43
2022-09-18T17:50:08.871Z,92.40
2022-09-18T17:52:42.111Z,91.62
2022-09-18T17:55:13.303Z,91.59
2022-09-18T17:57:47.014Z,91.30
2022-09-18T18:00:17.836Z,91.47
2022-09-18T18:02:49.124Z,91.42
2022-09-18T18:05:19.287Z,91.54
2022-09-18T18:07:56.548Z,91.28
2022-09-18T18:10:28.446Z,92.00
2022-09-18T18:13:01.092Z,91.74
2022-09-18T18:15:31.800Z,92.09
2022-09-18T18:18:02.476Z,92.03
2022-09-18T18:20:33.217Z,92.49
2022-09-18T18:23:05.512Z,92.23
2022-09-18T18:25:38.315Z,91.89
2022-09-18T18:28:13.183Z,92.03
2022-09-18T18:30:47.713Z,92.12
2022-09-18T18:33:18.421Z,91.98
2022-09-18T18:35:49.065Z,91.72
2022-09-18T18:38:22.883Z,91.38
2022-09-18T18:40:53.715Z,90.90
2022-09-18T18:43:24.515Z,90.79
2022-09-18T18:45:56.582Z,90.69
2022-09-18T18:48:26.315Z,90.74
2022-09-18T18:50:59.576Z,91.02
2022-09-18T18:53:36.039Z,90.88
2022-09-18T18:56:07.251Z,91.76
2022-09-18T18:58:39.736Z,91.35
2022-09-18T19:01:14.804Z,91.29
2022-09-18T19:03:51.751Z,91.42
2022-09-18T19:06:23.836Z,91.15
2022-09-18T19:09:01.657Z,91.38
2022-09-18T19:11:34.084Z,91.90
2022-09-18T19:14:05.558Z,91.94
2022-09-18T19:16:36.299Z,92.51
2022-09-18T19:19:07.373Z,92.57
2022-09-18T19:21:37.051Z,92.92
2022-09-18T19:24:12.392Z,92.35
2022-09-18T19:26:45.204Z,92.51
2022-09-18T19:29:18.496Z,92.25
2022-09-18T19:31:50.547Z,92.98
2022-09-18T19:34:23.970Z,93.20
2022-09-18T19:36:54.775Z,93.39
2022-09-18T19:39:28.097Z,92.45
2022-09-18T19:42:02.056Z,92.11
2022-09-18T19:44:36.344Z,91.37
2022-09-18T19:47:15.657Z,91.57
2022-09-18T19:49:46.483Z,91.34
2022-09-18T19:52:20.743Z,90.29
2022-09-18T19:54:55.941Z,90.54
2022-09-18T19:57:28.543Z,90.70
2022-09-18T19:59:59.651Z,90.41
2022-09-18T20:02:30.330Z,89.28
2022-09-18T20:05:00.006Z,89.64
2022-09-18T20:07:31.114Z,89.60
2022-09-18T20:10:04.563Z,89.45
2022-09-18T20:12:35.738Z,89.92
2022-09-18T20:15:06.526Z,90.36
2022-09-18T20:17:37.168Z,90.77
2022-09-18T20:20:15.630Z,91.64
2022-09-18T20:22:46.391Z,92.64
2022-09-18T20:25:19.738Z,94.07
2022-09-18T20:27:50.908Z,94.33
2022-09-18T20:30:22.116Z,95.19
2022-09-18T20:32:54.425Z,95.17
2022-09-18T20:35:25.169Z,95.49
2022-09-18T20:37:55.735Z,96.74
2022-09-18T20:40:29.171Z,96.59
2022-09-18T20:43:03.371Z,97.21
2022-09-18T20:45:34.048Z,97.00
2022-09-18T20:48:06.500Z,98.15
2022-09-18T20:50:37.317Z,98.20
2022-09-18T20:53:09.250Z,98.08
2022-09-18T20:55:42.507Z,98.63
2022-09-18T20:58:14.163Z,99.38
2022-09-18T21:00:46.515Z,99.73
2022-09-18T21:03:17.429Z,100.00
2022-09-18T21:05:53.016Z,100.00
2022-09-18T21:08:33.446Z,100.00
2022-09-18T21:11:07.507Z,100.00
2022-09-18T21:13:38.896Z,100.00
2022-09-18T21:16:09.829Z,100.00
2022-09-18T21:18:41.274Z,100.00
2022-09-18T21:21:15.037Z,100.00
2022-09-18T21:24:01.413Z,100.00
2022-09-18T21:26:36.468Z,100.00
2022-09-18T21:29:13.126Z,100.00
2022-09-18T21:31:45.059Z,100.00
2022-09-18T21:34:19.371Z,100.00
2022-09-18T21:36:53.912Z,100.00
2022-09-18T21:39:24.572Z,100.00
2022-09-18T21:41:57.541Z,100.00
2022-09-18T21:44:30.041Z,100.00
2022-09-18T21:47:02.936Z,100.00
2022-09-18T21:49:34.069Z,100.00
2022-09-18T21:52:07.347Z,100.00
2022-09-18T21:54:38.547Z,100.00
2022-09-18T21:57:11.953Z,100.00
2022-09-18T21:59:41.861Z,100.00
2022-09-18T22:02:13.814Z,100.00
2022-09-18T22:04:45.754Z,100.00
2022-09-18T22:07:15.637Z,100.00
2022-09-18T22:09:45.702Z,100.00
2022-09-18T22:12:17.991Z,100.00
2022-09-18T22:14:47.588Z,100.00
2022-09-18T22:17:17.550Z,100.00
2022-09-18T22:19:47.818Z,100.00
2022-09-18T22:22:17.500Z,100.00
2022-09-18T22:24:47.181Z,100.00
2022-09-18T22:27:19.430Z,100.00
2022-09-18T22:29:49.068Z,100.00
2022-09-18T22:32:19.735Z,100.00
2022-09-18T22:34:51.038Z,100.00
2022-09-18T22:37:20.864Z,100.00
2022-09-18T22:39:50.624Z,100.00
2022-09-18T22:42:22.875Z,100.00
2022-09-18T22:44:52.552Z,100.00
2022-09-18T22:47:22.184Z,100.00
2022-09-18T22:49:52.084Z,100.00
2022-09-18T22:52:21.725Z,100.00
2022-09-18T22:54:51.354Z,100.00
2022-09-18T22:57:23.644Z,100.00
2022-09-18T22:59:53.356Z,100.00
2022-09-18T23:02:23.391Z,100.00
2022-09-18T23:04:53.311Z,100.00
2022-09-18T23:07:23.231Z,100.00
2022-09-18T23:09:52.851Z,99.71
2022-09-18T23:12:25.184Z,100.00
2022-09-18T23:14:54.852Z,100.00
2022-09-18T23:17:24.537Z,99.45
2022-09-18T23:19:54.171Z,100.00
2022-09-18T23:22:24.219Z,99.87
2022-09-18T23:24:54.311Z,100.00
2022-09-18T23:27:26.650Z,100.00
2022-09-18T23:29:56.275Z,100.00
2022-09-18T23:32:26.058Z,100.00
2022-09-18T23:34:55.677Z,99.78
2022-09-18T23:37:25.316Z,100.00
2022-09-18T23:39:54.989Z,99.92
2022-09-18T23:42:27.235Z,99.88
2022-09-18T23:44:56.860Z,100.00
2022-09-18T23:47:26.488Z,99.88
2022-09-18T23:49:56.175Z,100.00
2022-09-18T23:52:25.863Z,100.00
2022-09-18T23:54:55.459Z,99.73
2022-09-18T23:57:28.246Z,100.00
2022-09-18T23:59:58.767Z,100.00
